Terminal Aerodrome Forecast
Issued by NWS Cleveland, OH

Home | Current Version | Previous Version | Text Only | Print | Product List | Glossary On
Versions: 1 2 3 4 5 6 7 8 9 10 11 12 13 14 15
000
FTUS41 KCLE 281725
TAFTOL
TAF
KTOL 281725Z 2818/2918 20010G15KT P6SM VCTS SCT035CB BKN120 OVC250
     FM290000 24008KT P6SM OVC250
     FM290800 20004KT 6SM BR BKN250
     FM291100 20004KT 4SM BR OVC035
     FM291300 21007KT P6SM OVC250=

USA.gov is the U.S. government's official web portal to all federal, state and local government web resources and services.